x

Pt Arena - 19nm North Of Point Arena, Ca (46014) Weather Station

5:40am - Sun 19th Feb 2017 All times are PST. -8 hours from GMT.

  • Wind
    27mph, 34mph gusts
  • Air Temp 51°f
  • Sea Pressure 1005.5mb
  • Pt Arena - 19nm North Of Point Arena, Ca
  • Pt Arena - 19nm North Of Point Arena, Ca

More Historic Weather Station data

Upgrade to MSW Pro to gain access to the past 30 days of data for over 8000 Wavebouys and Weather Stations around the globe.

Join Pro

Comparision Forecast

View Surf forecast
   
Sun 02/19 5:40am  -   -   -  27 34 mph 1005.5mb 51f
5:30am  -   -   -  27 34 mph 1005.4mb 51f
5:20am  -   -   -  27 34 mph 1005.5mb 51f
5:10am  -   -   -  25 31 mph 1005.5mb 51f
5:00am  -   -   -  25 31 mph 1005.5mb 51f
4:50am 8ft 11s 6s 25 34 mph 1005.6mb 51f
4:40am  -   -   -  25 31 mph 1005.8mb 51f
4:30am  -   -   -  27 31 mph 1005.6mb 51f
4:20am  -   -   -  27 34 mph 1005.6mb 51f
4:10am  -   -   -  27 34 mph 1005.6mb 51f
4:00am  -   -   -  25 31 mph 1005.6mb 51f
3:50am 7.5ft 12s 7s 25 31 mph 1005.6mb 51f
3:40am 7.5ft  -  7s 25 31 mph 1005.9mb 51f
3:30am  -   -   -  25 31 mph 1006.1mb 51f
3:20am  -   -   -  25 31 mph 1006mb 51f
3:10am  -   -   -  22 27 mph 1006.5mb 50f
3:00am  -   -   -  22 29 mph 1006.5mb 50f
2:50am 8ft 12s 7s 25 31 mph 1006.5mb 50f
2:40am 8ft  -  7s 25 29 mph 1006.5mb 50f
2:30am  -   -   -  22 29 mph 1006.6mb 50f
2:20am  -   -   -  22 29 mph 1006.9mb 50f
2:10am  -   -   -  22 27 mph 1006.9mb 50f
2:00am  -   -   -  22 29 mph 1006.6mb 49f
1:50am 7.5ft 13s 7s 22 29 mph 1006.6mb 49f
1:40am 7.5ft  -  7s 22 27 mph 1006.8mb 49f
1:30am  -   -   -  20 25 mph 1006.9mb 49f
1:20am  -   -   -  20 25 mph 1007mb 49f
1:10am  -   -   -  20 25 mph 1007mb 49f
1:00am  -   -   -  20 25 mph 1007.1mb 50f
12:50am 8ft 11s 8s 18 25 mph 1007.4mb 50f
12:40am 8ft  -  8s 18 22 mph 1007.3mb 50f
12:30am  -   -   -  18 22 mph 1007.4mb 50f
12:20am  -   -   -  18 25 mph 1007.5mb 50f
12:10am  -   -   -  18 22 mph 1007.4mb 50f
12:00am  -   -   -  16 22 mph 1007.5mb 50f
Sat 02/18 11:50pm 9ft 10s 8s 16 20 mph 1007.5mb 50f
11:40pm 9ft  -  8s 16 20 mph 1007.5mb 49f
11:30pm  -   -   -  16 18 mph 1007.5mb 49f
11:20pm  -   -   -  13 18 mph 1007.5mb 49f
11:10pm  -   -   -  13 18 mph 1007.6mb 49f
11:00pm  -   -   -  13 18 mph 1007.6mb 49f
10:50pm 9ft 12s 8s 13 18 mph 1007.4mb 49f
10:40pm 9ft  -  8s 13 18 mph 1007.4mb 48f
10:30pm  -   -   -  13 16 mph 1007.4mb 48f
10:20pm  -   -   -  13 16 mph 1007.5mb 49f
10:10pm  -   -   -  11 16 mph 1007.5mb 49f
10:00pm  -   -   -  11 16 mph 1007.5mb 49f
9:50pm 10ft 10s 8s 11 16 mph 1007.6mb 50f
9:40pm 10ft  -  8s 13 18 mph 1007.5mb 50f
9:30pm  -   -   -  11 16 mph 1007.5mb 50f
9:20pm  -   -   -  11 16 mph 1007.3mb 51f
9:10pm  -   -   -  9 11 mph 1007.3mb 50f
9:00pm  -   -   -  7 11 mph 1007.3mb 51f
8:50pm 9.5ft 8s 8s 7 11 mph 1007mb 50f
8:40pm  -   -   -  4 9 mph 1007mb 50f
8:30pm  -   -   -  4 9 mph 1007mb 50f
8:20pm  -   -   -  7 11 mph 1006.9mb 50f
8:10pm  -   -   -  7 11 mph 1007mb 50f
8:00pm  -   -   -  7 9 mph 1007mb 51f
7:50pm 10ft 10s 8s 7 9 mph 1006.9mb 51f
7:40pm 10ft  -  8s 4 9 mph 1006.6mb 51f
7:30pm  -   -   -  4 7 mph 1006.4mb 51f
7:20pm  -   -   -  4 9 mph 1006.4mb 51f
7:10pm  -   -   -  9 13 mph 1006.5mb 51f
7:00pm  -   -   -  7 11 mph 1006.5mb 51f
6:50pm 10ft 13s 8s 9 13 mph 1006.4mb 51f
6:40pm  -   -   -  9 13 mph 1006.3mb 51f
6:30pm  -   -   -  11 16 mph 1006.3mb 51f
6:20pm  -   -   -  11 16 mph 1006.3mb 51f
6:10pm  -   -   -  11 16 mph 1006.3mb 51f
6:00pm  -   -   -  11 16 mph 1006mb 51f
5:50pm 10.5ft 13s 8s 11 16 mph 1006mb 51f
5:40pm  -   -   -  11 16 mph 1005.9mb 51f
5:30pm  -   -   -  11 16 mph 1005.8mb 51f
5:20pm  -   -   -  11 16 mph 1005.5mb 51f
5:10pm  -   -   -  11 16 mph 1005.5mb 51f
5:00pm  -   -   -  11 16 mph 1005.5mb 51f
4:50pm 9.5ft  -  8s 11 16 mph 1005.3mb 51f
4:40pm 9.5ft 14s 8s  -  mph - -
4:30pm  -   -   -  11 16 mph 1005.3mb 51f
4:20pm  -   -   -  13 18 mph 1005.4mb 51f
4:10pm  -   -   -  16 20 mph 1005.1mb 51f
4:00pm  -   -   -  16 22 mph 1005mb 51f
3:50pm 10ft  -  7s 18 22 mph 1005.1mb -
3:40pm  -   -   -  16 22 mph 1005mb 51f
3:30pm  -   -   -  16 20 mph 1005mb 51f
3:20pm  -   -   -  16 20 mph 1005mb 51f
3:10pm  -   -   -  16 20 mph 1004.9mb 51f
3:00pm  -   -   -  16 22 mph 1004.6mb 51f
2:50pm 10ft 9s 7s 18 22 mph 1005mb 51f
2:40pm 10ft  -  7s 18 22 mph 1005mb 51f
2:30pm  -   -   -  16 20 mph 1004.9mb 51f
2:20pm  -   -   -  18 22 mph 1004.8mb 51f
2:10pm  -   -   -  18 22 mph 1004.9mb 51f
2:00pm  -   -   -  18 22 mph 1005mb 51f
1:50pm 11ft 9s 7s 18 22 mph 1005mb 51f
1:40pm 11ft  -  7s 18 25 mph 1004.6mb 51f
1:30pm  -   -   -  18 22 mph 1005mb 51f
1:20pm  -   -   -  18 25 mph 1004.5mb 51f
1:10pm  -   -   -  20 25 mph 1004.4mb 51f
1:00pm  -   -   -  18 25 mph 1004.4mb 51f
12:50pm  -   -   -  20 25 mph 1004.4mb 51f
12:40pm  -   -   -  20 25 mph 1004.6mb 51f
12:30pm  -   -   -  20 25 mph 1004.6mb 51f
12:20pm  -   -   -  20 25 mph 1004.5mb 51f
12:10pm  -   -   -  20 25 mph 1004.8mb 51f
12:00pm  -   -   -  20 25 mph 1004.8mb 51f
11:50am 12.5ft 9s 7s 22 27 mph 1004.6mb 51f
11:40am 12.5ft  -  7s 22 29 mph 1005mb 51f
11:30am  -   -   -  22 29 mph 1005mb 51f
11:20am  -   -   -  22 29 mph 1005.1mb 52f
11:10am  -   -   -  22 29 mph 1005mb 52f
11:00am  -   -   -  22 29 mph 1004.9mb 52f
10:50am 12ft 9s 7s 22 27 mph 1004.8mb 51f
10:40am  -   -   -  22 29 mph 1004.8mb 51f
10:30am  -   -   -  22 29 mph 1004.8mb 52f
10:20am  -   -   -  25 29 mph 1004.8mb 51f
10:10am  -   -   -  25 34 mph 1004.6mb 52f
10:00am  -   -   -  25 31 mph 1004.5mb 52f
9:50am 12ft 10s 7s 27 31 mph 1004.3mb 52f
9:40am 12ft  -  7s 25 31 mph 1004mb 52f
9:30am  -   -   -  25 29 mph 1003.9mb 51f
9:20am  -   -   -  25 31 mph 1003.6mb 51f
9:10am  -   -   -  25 31 mph 1003.5mb 52f
9:00am  -   -   -  27 34 mph 1003.4mb 52f
8:50am 12.5ft 10s 7s 27 34 mph 1003.5mb 52f
8:40am 12.5ft  -  7s 27 34 mph 1003.1mb 52f
8:30am  -   -   -  27 34 mph 1003.1mb 52f
8:20am  -   -   -  29 36 mph 1002.9mb 52f
8:10am  -   -   -  27 34 mph 1002.5mb 52f
8:00am  -   -   -  29 36 mph 1002.5mb 52f
7:50am 13.5ft 11s 7s 27 34 mph 1002mb 52f
7:40am 13.5ft  -  7s 27 34 mph 1001.8mb 52f
7:30am  -   -   -  29 36 mph 1001.6mb 52f
7:20am  -   -   -  29 38 mph 1001.5mb 52f
7:10am  -   -   -  29 36 mph 1001.3mb 52f
7:00am  -   -   -  27 34 mph 1001.3mb 51f
6:50am 14ft 10s 8s 27 38 mph 1001.3mb 51f
6:40am  -   -   -  31 40 mph 1001mb 51f
6:30am  -   -   -  29 38 mph 1001mb 51f
6:20am  -   -   -  29 38 mph 1000.9mb 51f
6:10am  -   -   -  31 40 mph 1000.5mb 52f
6:00am  -   -   -  31 40 mph 1000.4mb 52f
5:50am 14.5ft 10s 8s 31 40 mph 1000.3mb 52f
5:40am  -   -   -  31 40 mph 1000.1mb 52f
5:30am  -   -   -  29 38 mph 999.9mb 52f
5:20am  -   -   -  29 43 mph 999.8mb 52f
5:10am  -   -   -  29 40 mph 999.5mb 52f
5:00am  -   -   -  31 40 mph 999.4mb 52f
4:50am 13.5ft 10s 7s 31 38 mph 999.1mb 52f
4:40am 13.5ft  -  7s 29 38 mph 998.8mb 52f
4:30am  -   -   -  31 40 mph 998.5mb 53f
4:20am  -   -   -  31 40 mph 998.4mb 53f
4:10am  -   -   -  31 38 mph 998.3mb 53f
4:00am  -   -   -  29 38 mph 998mb 52f
3:50am 14ft 9s 8s 31 38 mph 997.9mb 52f
3:40am 14ft  -  8s 29 40 mph 997.8mb 52f
3:30am  -   -   -  31 40 mph 997.6mb 52f
3:20am  -   -   -  31 38 mph 997.4mb 52f
3:10am  -   -   -   -  mph 997.3mb -
3:00am  -   -   -  31 43 mph 997mb 53f
2:50am 14ft 9s 8s 31 38 mph 996.9mb 53f
2:40am  -   -   -  31 40 mph 996.6mb 53f
2:30am  -   -   -  29 38 mph 996.5mb 53f
2:20am  -   -   -  29 38 mph 996.3mb 53f
2:10am  -   -   -  29 40 mph 996.1mb 53f
2:00am  -   -   -  31 40 mph 996mb 53f
1:50am 13ft 11s 8s 34 45 mph 995.9mb 53f
1:40am 13ft  -  8s 29 38 mph 995.5mb 53f
1:30am  -   -   -  29 43 mph 995.4mb 53f
1:20am  -   -   -  29 40 mph 995.1mb 53f
1:10am  -   -   -  29 38 mph 995mb 53f
1:00am  -   -   -  29 40 mph 995mb 53f
12:50am 13.5ft 8s 8s 31 38 mph 994.6mb 53f
12:40am 13.5ft  -  8s 29 38 mph 994.5mb 53f
12:30am  -   -   -  29 40 mph 994.4mb 53f
12:20am  -   -   -  29 40 mph 994.1mb 53f
12:10am  -   -   -  29 38 mph 994mb 53f
12:00am  -   -   -  27 36 mph 994mb 53f
Fri 02/17 11:50pm 10.5ft 14s 7s 25 34 mph 993.8mb 53f
11:40pm 10.5ft  -  7s 27 31 mph 993.6mb 53f
11:30pm  -   -   -  27 31 mph 993.5mb 53f
11:20pm  -   -   -  25 31 mph 993.3mb 53f
11:10pm  -   -   -  22 27 mph 993.1mb 53f
11:00pm  -   -   -  22 29 mph 993mb 52f
10:50pm 9ft 11s 7s 22 29 mph 993mb 52f
10:40pm  -   -   -  22 29 mph 993mb 51f
10:30pm  -   -   -  22 29 mph 992.8mb 51f
10:20pm  -   -   -  25 29 mph 992.6mb 51f
10:10pm  -   -   -  25 31 mph 992.5mb 51f
10:00pm  -   -   -  25 31 mph 992.3mb 51f
9:50pm 9.5ft 14s 7s 25 31 mph 992.1mb 51f
9:40pm 9.5ft  -  7s 25 34 mph 992mb 51f
9:30pm  -   -   -  27 34 mph 992mb 51f
9:20pm  -   -   -  27 34 mph 991.9mb 51f
9:10pm  -   -   -  27 36 mph 991.6mb 51f
9:00pm  -   -   -  27 34 mph 991.6mb 51f
8:50pm 10.5ft 13s 7s 27 34 mph 991.4mb 51f
8:40pm 10.5ft  -  7s 27 31 mph 991.3mb 51f
8:30pm  -   -   -  27 34 mph 991.4mb 51f
8:20pm  -   -   -  27 34 mph 991.1mb 51f
8:10pm  -   -   -  27 34 mph 991mb 51f
8:00pm  -   -   -  25 34 mph 991mb 51f
7:50pm 11ft 13s 7s 25 34 mph 990.8mb 51f
7:40pm 11ft  -  7s 25 31 mph 990.5mb 51f
7:30pm  -   -   -  22 31 mph 990.5mb 51f
7:20pm  -   -   -  22 29 mph 990.1mb 51f
7:10pm  -   -   -  22 31 mph 990mb 51f
7:00pm  -   -   -  22 29 mph 989.9mb 51f
6:50pm 12ft 11s 7s 22 31 mph 989.6mb 51f
6:40pm  -   -   -  22 29 mph 989.5mb 51f
6:30pm  -   -   -  22 31 mph 989.3mb 51f
6:20pm  -   -   -  22 31 mph 989.1mb 52f
6:10pm  -   -   -  25 31 mph 989mb 52f
6:00pm  -   -   -  22 31 mph 988.9mb 52f
5:50pm 13ft 11s 8s 22 29 mph 988.6mb 52f
5:40pm  -   -   -  22 31 mph 988.5mb 52f
5:30pm 13ft  -  8s 22 31 mph 988.4mb 52f
5:20pm  -   -   -  22 29 mph 988.3mb 52f
5:10pm  -   -   -  22 34 mph 988mb 52f
5:00pm  -   -   -  22 29 mph 988mb 52f
4:50pm 14ft 11s 8s 20 29 mph 988mb 52f
4:40pm  -   -   -  20 29 mph 987.8mb 52f
4:30pm  -   -   -  20 29 mph 987.8mb 52f
4:20pm  -   -   -  20 34 mph 987.5mb 53f
4:10pm  -   -   -  20 31 mph 987.5mb 53f
4:00pm  -   -   -  20 31 mph 987.4mb 53f
3:50pm 12.5ft 10s 8s 20 29 mph 987.4mb 53f
3:40pm 12.5ft  -  8s 20 29 mph 987.3mb 53f
3:30pm  -   -   -  22 31 mph 987.1mb 52f
3:20pm  -   -   -  20 29 mph 987.1mb 53f
3:10pm  -   -   -  22 31 mph 987mb 53f
3:00pm  -   -   -  22 31 mph 986.9mb 53f
2:50pm 8ft 14s 7s 25 31 mph 986.9mb 53f
2:40pm 8ft  -  7s 25 31 mph 986.9mb 53f
2:30pm  -   -   -  22 29 mph 987mb 53f
2:20pm  -   -   -  25 31 mph 986.9mb 52f
2:10pm  -   -   -  25 31 mph 986.8mb 52f
2:00pm  -   -   -  25 31 mph 986.8mb 52f
1:50pm 8.5ft 14s 7s 27 31 mph 986.6mb 52f
1:40pm 8.5ft  -  7s 27 34 mph 986.8mb 52f
1:30pm  -   -   -  27 34 mph 986.8mb 52f
1:20pm  -   -   -  25 31 mph 987mb 52f
1:10pm  -   -   -  27 34 mph 987mb 52f
1:00pm  -   -   -  25 31 mph 987.3mb 52f
12:50pm 8.5ft 13s 8s 25 31 mph 987.4mb 52f
12:40pm  -   -   -  25 31 mph 987.5mb 52f
12:30pm  -   -   -  22 29 mph 987.8mb 52f
12:20pm  -   -   -  25 31 mph 988mb 52f
12:10pm  -   -   -  25 31 mph 988mb 52f
12:00pm  -   -   -  25 34 mph 988.1mb 52f
11:50am 9ft 11s 8s 22 29 mph 988.3mb 52f
11:40am 9ft  -  8s 22 29 mph 988.5mb 52f
11:30am  -   -   -  22 27 mph 988.9mb 52f
11:20am  -   -   -  22 29 mph 989mb 52f
11:10am  -   -   -  22 31 mph 989.1mb 52f
11:00am  -   -   -  22 27 mph 989.5mb 52f
10:50am 9ft 13s 9s 22 31 mph 989.6mb 52f
10:40am  -   -   -  20 27 mph 990mb 52f
10:30am  -   -   -  20 27 mph 990.4mb 52f
10:20am  -   -   -  20 25 mph 990.6mb 52f
10:10am  -   -   -  20 25 mph 991mb 52f
10:00am  -   -   -  18 25 mph 991.4mb 52f
9:50am 8.5ft 11s 8s 18 25 mph 991.8mb 52f
9:40am 8.5ft  -  8s 18 25 mph 992.3mb 53f
9:30am  -   -   -  18 27 mph 992.4mb 53f
9:20am  -   -   -  18 27 mph 992.5mb 53f
9:10am  -   -   -  18 27 mph 992.8mb 53f
9:00am  -   -   -  16 20 mph 993mb 53f
8:50am 11ft 12s 10s 11 16 mph 993.3mb 53f
8:40am 11ft  -  10s 13 18 mph 993.4mb 53f
8:30am  -   -   -  13 18 mph 993.3mb 53f
8:20am  -   -   -  11 16 mph 993.5mb 53f
8:10am  -   -   -  11 16 mph 993.6mb 53f
8:00am  -   -   -  13 20 mph 993.8mb 53f
7:50am 11ft 15s 9s 9 16 mph 994.1mb 53f
7:40am  -   -   -  11 16 mph 994.5mb 53f
7:30am  -   -   -  11 18 mph 994.5mb 53f
7:20am  -   -   -  13 20 mph 994.5mb 53f
7:10am  -   -   -  11 18 mph 994.6mb 53f
7:00am  -   -   -  11 18 mph 995mb 53f
6:50am 12ft 12s 10s 13 22 mph 995.5mb 53f
6:40am 12ft  -  10s 13 20 mph 996mb 53f
6:30am  -   -   -  13 18 mph 996.4mb 53f
6:20am  -   -   -  11 18 mph 996.5mb 54f
6:10am  -   -   -  11 16 mph 996.9mb 54f
6:00am  -   -   -  11 16 mph 996.9mb 54f
5:50am 11ft 15s 10s 9 13 mph 996.9mb 55f
5:40am 11ft  -  10s 9 16 mph 997mb 54f
5:30am  -   -   -  7 11 mph 997mb 54f
5:20am  -   -   -  7 13 mph 997.3mb 54f
5:10am  -   -   -  9 16 mph 997.4mb 54f
5:00am  -   -   -  9 13 mph 997.6mb 54f
4:50am 10.5ft 11s 9s 9 16 mph 998mb 54f
4:40am  -   -   -  11 16 mph 998.1mb 54f
4:30am  -   -   -  11 18 mph 998.4mb 54f
4:20am  -   -   -  11 18 mph 998.6mb 54f
4:10am  -   -   -  13 20 mph 998.8mb 54f
4:00am  -   -   -  13 18 mph 999mb 53f
3:50am 11.5ft 16s 10s 13 20 mph 999.8mb 54f
3:40am 11.5ft  -  10s 13 20 mph 1000.4mb 54f
3:30am  -   -   -  16 20 mph 1000.5mb 54f
3:20am  -   -   -  13 20 mph 1000.6mb 54f
3:10am  -   -   -  13 18 mph 1000.9mb 53f
3:00am  -   -   -  13 18 mph 1001.1mb 53f
2:50am 12.5ft 12s 10s 13 18 mph 1001.6mb 53f
2:40am  -   -   -  13 18 mph 1002mb 53f
2:30am  -   -   -  13 20 mph 1002.1mb 53f
2:20am  -   -   -  11 20 mph 1002.5mb 53f
2:10am  -   -   -  9 13 mph 1003mb 53f
2:00am  -   -   -  9 16 mph 1003.4mb 54f
1:50am 12ft 13s 9s 9 13 mph 1003.8mb 54f
1:40am 12ft  -  9s 9 13 mph 1004mb 54f
1:30am  -   -   -  9 13 mph 1004.1mb 54f
1:20am  -   -   -  11 16 mph 1004.3mb 54f
1:10am  -   -   -  11 16 mph 1004.4mb 54f
1:00am  -   -   -  11 18 mph 1004.5mb 54f
12:50am 13ft 13s 10s 13 18 mph 1004.9mb 54f
12:40am 13ft  -  10s 11 18 mph 1004.8mb 54f
12:30am  -   -   -  11 18 mph 1004.6mb 54f
12:20am  -   -   -  11 18 mph 1004.8mb 54f
12:10am  -   -   -  11 18 mph 1005mb 54f
12:00am  -   -   -  11 18 mph 1005.1mb 54f
Thu 02/16 11:50pm 14ft 15s 9s 11 16 mph 1005.4mb 53f
11:40pm  -   -   -  11 18 mph 1005.5mb 53f
11:30pm  -   -   -  11 18 mph 1005.8mb 52f
11:20pm  -   -   -  13 20 mph 1005.9mb 52f
11:10pm  -   -   -  13 22 mph 1005.8mb 52f
11:00pm  -   -   -  13 22 mph 1005.9mb 52f
10:50pm 14ft 13s 9s 11 20 mph 1006.1mb 52f
10:40pm 14ft  -  9s 11 20 mph 1006.5mb 52f
10:30pm  -   -   -  11 16 mph 1006.8mb 52f
10:20pm  -   -   -  11 16 mph 1007mb 53f
10:10pm  -   -   -  9 16 mph 1007.3mb 53f
10:00pm  -   -   -  11 18 mph 1007.5mb 53f
9:50pm 14ft 14s 9s 11 18 mph 1007.5mb 53f
9:40pm 14ft  -  9s 9 16 mph 1008mb 53f
9:30pm  -   -   -  7 13 mph 1008.5mb 53f
9:20pm  -   -   -  4 13 mph 1009mb 53f
9:10pm  -   -   -  4 11 mph 1009.4mb 53f
9:00pm  -   -   -  4 13 mph 1009.5mb 53f
8:50pm 16.5ft 14s 10s 4 13 mph 1009.6mb 53f
8:40pm 16.5ft  -  10s 4 13 mph 1010mb 53f
8:30pm  -   -   -  4 13 mph 1010mb 54f
8:20pm  -   -   -  4 11 mph 1010.1mb 54f
8:10pm  -   -   -  4 11 mph 1010.5mb 54f
8:00pm  -   -   -  4 13 mph 1010.8mb 54f
7:50pm 16ft 13s 10s 4 11 mph 1010.9mb 54f
7:40pm 16ft  -  10s 4 9 mph 1011.3mb 54f
7:30pm  -   -   -  4 7 mph 1011.3mb 54f
7:20pm  -   -   -  4 9 mph 1011.4mb 54f
7:10pm  -   -   -  4 9 mph 1011.5mb 54f
7:00pm  -   -   -  7 11 mph 1011.5mb 54f
6:50pm 16ft 12s 10s 7 11 mph 1011.4mb 54f
6:40pm 16ft  -  10s 7 11 mph 1011.4mb 54f
6:30pm  -   -   -  4 11 mph 1011.5mb 54f
6:20pm  -   -   -  4 9 mph 1011.6mb 54f
6:10pm  -   -   -  4 9 mph 1011.9mb 54f
6:00pm  -   -   -  4 9 mph 1012mb 53f
5:50pm 12.5ft 15s 9s 2 7 mph 1012mb 53f
5:40pm 12.5ft  -  9s 2 7 mph 1011.9mb 54f
5:30pm  -   -   -  2 7 mph 1011.9mb 54f
5:20pm  -   -   -  2 7 mph 1012mb 54f
5:10pm  -   -   -  2 7 mph 1012.1mb 54f
5:00pm  -   -   -   -  4 mph 1012.4mb 54f
4:50pm 15.5ft 16s 10s 2 7 mph 1012.3mb 54f
4:40pm 15.5ft  -  10s 2 7 mph 1012.3mb 54f
4:30pm  -   -   -  2 7 mph 1012.4mb 54f
4:20pm  -   -   -  2 4 mph 1012.5mb 54f
4:10pm  -   -   -  2 7 mph 1012.6mb 54f
4:00pm  -   -   -  2 7 mph 1012.6mb 54f
3:50pm 14ft 14s 9s 2 9 mph 1012.8mb 54f
3:40pm  -   -   -  4 9 mph 1012.5mb 54f
3:30pm  -   -   -  4 11 mph 1012.5mb 54f
3:20pm  -   -   -  4 9 mph 1012.5mb 54f
3:10pm  -   -   -  9 16 mph 1012.9mb 55f
3:00pm  -   -   -  11 16 mph 1013.4mb 55f
2:50pm 14.5ft 16s 9s 11 18 mph 1013.6mb 55f
2:40pm  -   -   -  13 18 mph 1013.6mb 55f
2:30pm  -   -   -  13 20 mph 1013.8mb 55f
2:20pm  -   -   -  18 22 mph 1013.8mb 55f
2:10pm  -   -   -  16 20 mph 1013.6mb 55f
2:00pm  -   -   -  16 20 mph 1013.5mb 55f
1:50pm 13ft 16s 9s 16 20 mph 1013.6mb 55f
1:40pm 13ft  -  9s 18 22 mph 1013.5mb 55f
1:30pm  -   -   -  16 22 mph 1013.4mb 55f
1:20pm  -   -   -  18 25 mph 1013.3mb 55f
1:10pm  -   -   -  18 25 mph 1013.4mb 55f
1:00pm  -   -   -  11 16 mph 1013.3mb 55f
12:50pm 14ft 16s 9s 11 18 mph 1013.1mb 54f
12:40pm 14ft  -  9s 13 20 mph 1013.3mb 54f
12:30pm  -   -   -  13 20 mph 1013.4mb 55f
12:20pm  -   -   -  11 16 mph 1013.3mb 55f
12:10pm  -   -   -  11 13 mph 1013.1mb 55f
12:00pm  -   -   -  9 11 mph 1013.3mb 55f
11:50am 13.5ft 13s 9s 7 11 mph 1013.3mb 55f
11:40am  -   -   -  9 11 mph 1013.4mb 55f
11:30am  -   -   -  9 11 mph 1013.4mb 55f
11:20am  -   -   -  9 13 mph 1013.4mb 55f
11:10am  -   -   -  9 13 mph 1013.3mb 55f
11:00am  -   -   -  9 13 mph 1013.1mb 55f
10:50am 14ft 12s 9s 9 13 mph 1013mb 55f
10:40am 14ft  -  9s 9 16 mph 1013mb 55f
10:30am  -   -   -  11 16 mph 1013mb 55f
10:20am  -   -   -  9 16 mph 1012.8mb 55f
10:10am  -   -   -  11 16 mph 1012.5mb 55f
10:00am  -   -   -  13 20 mph 1012.5mb 55f
9:50am 14ft 17s 9s 13 18 mph 1012.3mb 55f
9:40am 14ft  -  9s 11 18 mph 1012mb 55f
9:30am  -   -   -  11 18 mph 1011.8mb 55f
9:20am  -   -   -  13 18 mph 1011.5mb 55f
9:10am  -   -   -  13 20 mph 1011.4mb 55f
9:00am  -   -   -  16 22 mph 1011.3mb 55f
8:50am 14ft 11s 9s 16 22 mph 1011.3mb 55f
8:40am 14ft  -  9s 18 22 mph 1011mb 55f
8:30am  -   -   -  18 25 mph 1011mb 55f
8:20am  -   -   -  18 25 mph 1010.9mb 55f
8:10am  -   -   -  16 20 mph 1010.6mb 55f
8:00am  -   -   -  13 20 mph 1010.5mb 55f
7:50am 14ft 11s 9s 16 20 mph 1010.4mb 56f
7:40am 14ft  -  9s 16 20 mph 1010mb 56f
7:30am  -   -   -  16 22 mph 1009.9mb 56f
7:20am  -   -   -  16 22 mph 1010mb 56f
7:10am  -   -   -  18 22 mph 1010mb 56f
7:00am  -   -   -  18 22 mph 1009.6mb 56f
6:50am 14ft 11s 9s 16 20 mph 1009.5mb 56f
6:40am 14ft  -  9s 18 22 mph 1009.5mb 56f
6:30am  -   -   -  18 25 mph 1009.1mb 56f
6:20am  -   -   -  18 25 mph 1009mb 56f
6:10am  -   -   -  20 27 mph 1008.9mb 56f
6:00am  -   -   -  20 27 mph 1008.8mb 56f
5:50am 13ft 12s 9s 20 27 mph 1008.6mb 56f
5:40am 13ft  -  9s 20 25 mph 1008.5mb 56f
5:30am  -   -   -  22 31 mph 1008.4mb 56f
5:20am  -   -   -  22 29 mph 1008.3mb 56f
5:10am  -   -   -  20 25 mph 1008mb 56f
5:00am  -   -   -  22 27 mph 1008mb 56f
4:50am 11.5ft  -  8s 22 29 mph 1008mb 55f
4:40am 11.5ft 12s  -   -  mph - -
4:30am  -   -   -  20 29 mph 1007.6mb 55f
4:20am  -   -   -  20 25 mph 1007.6mb 55f
4:10am  -   -   -  20 27 mph 1007.8mb 55f
4:00am  -   -   -  20 27 mph 1007.8mb 55f
3:50am 13ft 11s 8s 20 25 mph 1007.5mb 54f
3:40am 13ft  -  8s 20 25 mph 1007.5mb 54f
3:30am  -   -   -  20 25 mph 1007.4mb 55f
3:20am  -   -   -  20 25 mph 1007.3mb 55f
3:10am  -   -   -  18 22 mph 1007.1mb 55f
3:00am  -   -   -  18 22 mph 1007.3mb 54f
2:50am 13ft 13s 8s 16 20 mph 1007.1mb 54f
2:40am  -   -   -  16 20 mph 1007.1mb 54f
2:30am  -   -   -  16 20 mph 1006.9mb 54f
2:20am  -   -   -  16 20 mph 1007.1mb 55f
2:10am  -   -   -  13 18 mph 1007.5mb 55f
2:00am  -   -   -  13 20 mph 1007.5mb 55f
1:50am 13.5ft 12s 7s 16 25 mph 1008mb 55f
1:40am 13.5ft  -  7s 20 27 mph 1008mb 55f
1:30am  -   -   -  25 40 mph 1007.9mb 55f
1:20am  -   -   -  27 38 mph 1007.1mb 55f
1:10am  -   -   -  29 36 mph 1007.5mb 55f
1:00am  -   -   -  29 38 mph 1007mb 55f
12:50am 15ft 12s 7s 31 43 mph 1007mb 55f
12:40am 15ft  -  7s 31 38 mph 1006.9mb 55f
12:30am  -   -   -  34 43 mph 1007.1mb 55f
12:20am  -   -   -  34 45 mph 1007mb 55f
12:10am  -   -   -  34 43 mph 1007.1mb 55f
12:00am  -   -   -  34 45 mph 1007mb 56f
Wed 02/15 11:50pm 14ft 10s 7s 34 47 mph 1007mb 56f
11:40pm  -   -   -  34 47 mph 1007mb 56f
11:30pm  -   -   -  34 43 mph 1007.3mb 56f
11:20pm  -   -   -  36 45 mph 1007.3mb 56f
11:10pm  -   -   -  36 45 mph 1007.4mb 56f
11:00pm  -   -   -  38 51 mph 1007.1mb 57f
10:50pm 12.5ft 13s 7s 38 51 mph 1006.5mb 57f
10:40pm  -   -   -  38 47 mph 1006.6mb 58f
10:30pm  -   -   -  38 49 mph 1007.4mb 57f
10:20pm  -   -   -  36 47 mph 1007mb 58f
10:10pm  -   -   -  34 43 mph 1007.4mb 58f
10:00pm  -   -   -  36 43 mph 1008mb 57f
9:50pm 11.5ft 13s 7s 36 47 mph 1007.8mb 57f
9:40pm 11.5ft  -  7s 38 49 mph 1008.6mb 58f
9:30pm  -   -   -  34 43 mph 1008.9mb 58f
9:20pm  -   -   -  34 43 mph 1009.5mb 58f
9:10pm  -   -   -  34 45 mph 1010mb 57f
9:00pm  -   -   -  34 43 mph 1009.9mb 57f
8:50pm 11.5ft 11s 7s 31 43 mph 1010.5mb 58f
8:40pm 11.5ft  -  7s 31 40 mph 1010.5mb 58f
8:30pm  -   -   -  31 40 mph 1011mb 58f
8:20pm  -   -   -  29 36 mph 1011mb 58f
8:10pm  -   -   -  31 38 mph 1011mb 58f
8:00pm  -   -   -  31 38 mph 1011mb 58f
7:50pm 11ft 13s 7s 31 43 mph 1010.9mb 58f
7:40pm  -   -   -  31 40 mph 1011.1mb 58f
7:30pm  -   -   -  31 40 mph 1011.4mb 58f
7:20pm  -   -   -  31 40 mph 1011.5mb 58f
7:10pm  -   -   -  29 36 mph 1011.5mb 58f
7:00pm  -   -   -  29 38 mph 1011.5mb 58f
6:50pm 10.5ft 13s 7s 31 38 mph 1011.6mb 58f
6:40pm 10.5ft  -  7s 29 40 mph 1011.4mb 58f
6:30pm  -   -   -  27 34 mph 1011.5mb 57f
6:20pm  -   -   -  29 36 mph 1011.1mb 57f
6:10pm  -   -   -  27 34 mph 1011.5mb 57f
6:00pm  -   -   -  27 34 mph 1011.5mb 57f
5:50pm 10.5ft 13s 7s 27 34 mph 1011.8mb 57f
5:40pm  -   -   -  27 36 mph 1012mb 57f
5:30pm  -   -   -  29 34 mph 1012mb 57f
5:20pm  -   -   -  27 34 mph 1012.1mb 57f
5:10pm  -   -   -  27 34 mph 1012.3mb 56f
5:00pm  -   -   -  27 34 mph 1012.5mb 56f
4:50pm 9ft 14s 6s 27 34 mph 1012.6mb 56f
4:40pm 9ft  -  6s 27 34 mph 1012.5mb 56f
4:30pm  -   -   -  25 31 mph 1012.6mb 56f
4:20pm  -   -   -  27 34 mph 1012.6mb 57f
4:10pm  -   -   -  27 36 mph 1012.8mb 57f
4:00pm  -   -   -  29 34 mph 1012.9mb 57f
3:50pm 10ft 13s 7s 27 34 mph 1012.8mb 57f
3:40pm 10ft  -  7s 25 36 mph 1012.8mb 57f
3:20pm  -   -   -  29 36 mph 1012.8mb 58f
3:10pm  -   -   -  29 36 mph 1012.6mb 58f
3:00pm  -   -   -  29 36 mph 1013mb 58f
2:50pm 9ft 11s 6s 29 36 mph 1013mb 59f
2:40pm  -   -   -  29 36 mph 1013.1mb 58f
2:30pm  -   -   -  29 36 mph 1013.3mb 58f